Time;durP1;ratioP1;P1;durP2;ratioP2;P2;SDS_P1;SDS_P2;PMS_P1;PMS_P2;Temp;Humidity;BMP_temperature;BMP_pressure;BME280_temperature;BME280_humidity;BME280_pressure;Samples;Min_cycle;Max_cycle;Signal;HPM_P1;HPM_P2
2023/10/03 00:08:54;;;;;;;22.05;9.98;;;;;;;18.94;52.39;100114.88;21073909;28;20592;-81
2023/10/03 00:18:57;;;;;;;23.48;10.65;;;;;;;18.69;53.54;100100.34;21068929;28;20221;-81
2023/10/03 00:28:59;;;;;;;22.48;10.13;;;;;;;18.74;52.96;100087.75;21076498;28;20205;-80
2023/10/03 00:39:06;;;;;;;20.05;10.40;;;;;;;18.84;52.68;100069.94;21065494;28;20218;-80
2023/10/03 00:49:10;;;;;;;20.40;9.85;;;;;;;18.58;53.38;100043.16;21070174;28;20297;-81
2023/10/03 00:59:14;;;;;;;21.33;9.88;;;;;;;18.98;52.10;100027.31;21081137;28;20226;-81
2023/10/03 01:09:23;;;;;;;21.98;11.40;;;;;;;19.05;52.57;100027.38;21057834;28;20206;-80
2023/10/03 01:19:30;;;;;;;20.08;10.68;;;;;;;18.87;52.51;100015.00;21067710;28;20249;-81
2023/10/03 01:29:33;;;;;;;22.65;10.05;;;;;;;18.87;52.37;100015.00;21082505;28;20895;-80
2023/10/03 01:39:35;;;;;;;22.20;11.57;;;;;;;19.35;51.24;99975.91;21057599;28;20226;-82
2023/10/03 01:49:38;;;;;;;21.33;10.13;;;;;;;19.10;51.46;99972.81;21047154;28;20587;-81
2023/10/03 01:59:41;;;;;;;20.33;10.65;;;;;;;18.80;52.28;99941.63;21048278;28;20264;-81
2023/10/03 02:09:47;;;;;;;19.35;9.63;;;;;;;18.99;51.16;99906.31;21063351;28;20203;-80
2023/10/03 02:19:49;;;;;;;20.40;9.52;;;;;;;19.17;51.01;99887.31;21062560;28;20226;-80
2023/10/03 02:29:52;;;;;;;25.73;10.63;;;;;;;19.14;50.55;99853.88;21039465;28;20207;-80
2023/10/03 02:39:55;;;;;;;18.55;9.45;;;;;;;19.29;50.00;99838.50;21057427;28;20214;-81
2023/10/03 02:49:59;;;;;;;18.52;9.07;;;;;;;19.38;50.02;99834.44;21082491;28;20214;-80
2023/10/03 03:00:04;;;;;;;18.80;8.77;;;;;;;19.19;50.21;99822.13;21094972;28;20280;-81
2023/10/03 03:10:12;;;;;;;20.02;8.93;;;;;;;19.30;49.85;99805.91;21079636;28;20542;-80
2023/10/03 03:20:20;;;;;;;20.25;8.23;;;;;;;19.22;49.47;99792.00;21076684;28;20574;-81
2023/10/03 03:30:35;;;;;;;18.27;8.60;;;;;;;19.60;48.99;99793.38;21045435;28;20574;-81
2023/10/03 03:40:37;;;;;;;17.77;8.35;;;;;;;19.34;49.45;99788.81;21061893;28;20214;-81
2023/10/03 03:50:40;;;;;;;17.30;8.63;;;;;;;19.40;49.54;99787.19;21041054;28;20265;-80
2023/10/03 04:00:47;;;;;;;17.70;9.07;;;;;;;19.20;49.97;99798.09;21074471;28;20622;-82
2023/10/03 04:10:50;;;;;;;16.67;7.60;;;;;;;19.54;49.55;99803.53;21094392;28;20499;-80
2023/10/03 04:20:52;;;;;;;17.13;8.50;;;;;;;19.05;50.58;99815.53;21089232;28;20218;-80
2023/10/03 04:30:57;;;;;;;17.75;8.45;;;;;;;19.51;50.00;99830.00;21070344;28;20634;-81
2023/10/03 04:41:00;;;;;;;18.33;7.95;;;;;;;19.18;51.16;99809.06;21079265;28;20218;-82
2023/10/03 04:51:03;;;;;;;17.33;7.43;;;;;;;19.13;51.63;99809.44;21089250;28;20279;-82
2023/10/03 05:01:05;;;;;;;16.02;8.13;;;;;;;19.61;49.84;99815.00;21066264;28;20305;-82
2023/10/03 05:11:08;;;;;;;14.77;7.45;;;;;;;19.48;50.16;99823.09;21084400;28;20251;-81
2023/10/03 05:21:10;;;;;;;15.35;7.75;;;;;;;19.84;50.23;99846.84;21059280;28;20334;-83
2023/10/03 05:31:15;;;;;;;15.55;7.72;;;;;;;19.16;52.08;99848.59;21065788;28;20210;-81
2023/10/03 05:41:21;;;;;;;18.83;7.43;;;;;;;19.39;52.01;99856.06;21073172;28;20226;-80
2023/10/03 05:51:24;;;;;;;19.23;7.57;;;;;;;19.75;51.62;99845.59;21067353;28;20359;-82
2023/10/03 06:01:26;;;;;;;14.00;6.85;;;;;;;19.70;52.09;99869.66;21062114;28;20221;-79
2023/10/03 06:11:29;;;;;;;13.50;6.72;;;;;;;19.28;54.51;99879.66;21078232;28;20241;-79
2023/10/03 06:21:31;;;;;;;15.85;7.78;;;;;;;19.35;54.23;99892.34;21084748;28;20613;-80
2023/10/03 06:31:34;;;;;;;14.75;6.85;;;;;;;19.14;55.32;99905.22;21075355;28;20293;-80
2023/10/03 06:41:38;;;;;;;12.77;7.10;;;;;;;19.20;56.75;99914.22;21114448;28;20510;-81
2023/10/03 06:51:42;;;;;;;9.10;6.20;;;;;;;19.05;58.08;99916.16;21062758;28;20226;-80
2023/10/03 07:01:43;;;;;;;14.15;6.47;;;;;;;18.93;57.07;99922.19;21067966;28;20226;-81
2023/10/03 07:11:48;;;;;;;12.25;5.68;;;;;;;19.13;57.70;99954.91;21070019;28;20303;-81
2023/10/03 07:21:51;;;;;;;12.40;5.72;;;;;;;18.66;58.63;99975.72;21047706;28;20574;-81
2023/10/03 07:31:54;;;;;;;7.80;4.63;;;;;;;18.69;58.70;99985.53;21075111;28;20249;-80
2023/10/03 07:41:56;;;;;;;8.52;5.70;;;;;;;18.44;59.85;100008.84;21054728;28;20252;-79
2023/10/03 07:52:00;;;;;;;11.23;4.80;;;;;;;18.58;58.94;100028.94;21055120;28;20526;-80
2023/10/03 08:02:05;;;;;;;6.70;3.88;;;;;;;18.21;59.54;100005.31;21057084;28;20267;-80
2023/10/03 08:12:12;;;;;;;5.30;3.05;;;;;;;18.54;58.79;100030.94;21065540;28;20606;-79
2023/10/03 08:22:14;;;;;;;7.82;3.20;;;;;;;18.59;58.11;100022.00;21072921;28;20232;-80
2023/10/03 08:32:17;;;;;;;10.57;3.40;;;;;;;18.70;58.31;100047.00;21069197;28;20503;-80
2023/10/03 08:42:22;;;;;;;5.88;3.13;;;;;;;18.64;58.19;100057.94;21072550;28;20230;-81
2023/10/03 08:52:39;;;;;;;5.03;2.78;;;;;;;19.26;56.84;100073.19;21055916;28;20657;-81
2023/10/03 09:02:46;;;;;;;6.05;2.97;;;;;;;18.62;58.69;100089.66;21055042;28;20218;-80
2023/10/03 09:12:49;;;;;;;6.15;3.05;;;;;;;18.58;61.26;100105.06;21081738;28;20281;-81
2023/10/03 09:23:05;;;;;;;5.50;2.90;;;;;;;18.28;60.43;100088.00;21078388;28;20510;-79
2023/10/03 09:33:09;;;;;;;6.75;3.10;;;;;;;18.72;59.54;100093.03;21078299;28;20194;-81
2023/10/03 09:43:16;;;;;;;6.70;3.03;;;;;;;18.74;60.35;100091.44;21081568;28;20737;-81
2023/10/03 09:53:19;;;;;;;6.57;3.00;;;;;;;18.77;59.52;100110.59;21079304;28;20317;-80
2023/10/03 10:03:27;;;;;;;5.93;3.08;;;;;;;18.67;59.99;100124.75;21078071;28;20309;-84
2023/10/03 10:13:34;;;;;;;5.88;3.03;;;;;;;18.98;58.92;100116.53;21078021;28;20191;-80
2023/10/03 10:23:36;;;;;;;5.18;3.13;;;;;;;18.44;60.00;100122.81;21074085;28;20211;-80
2023/10/03 10:33:40;;;;;;;5.80;2.90;;;;;;;18.89;59.61;100110.34;21075406;28;20195;-83
2023/10/03 10:44:05;;;;;;;2.58;2.05;;;;;;;16.68;75.35;100161.28;21073349;28;20222;-78
2023/10/03 10:54:09;;;;;;;7.60;4.53;;;;;;;16.74;76.45;100171.16;21071766;28;20219;-84
2023/10/03 11:04:23;;;;;;;6.93;4.82;;;;;;;16.75;76.05;100170.78;21072419;28;20606;-77
2023/10/03 11:14:31;;;;;;;10.05;6.15;;;;;;;17.13;75.01;100201.19;21062346;28;20207;-78
2023/10/03 11:24:38;;;;;;;9.68;6.72;;;;;;;17.12;74.66;100199.53;21064383;28;20631;-78
2023/10/03 11:34:41;;;;;;;9.85;7.72;;;;;;;16.85;75.83;100217.66;21066378;28;20294;-79
2023/10/03 11:44:42;;;;;;;5.18;3.03;;;;;;;15.89;75.76;100209.78;21058042;28;20222;-86
2023/10/03 11:54:45;;;;;;;2.25;2.05;;;;;;;16.56;72.57;100223.94;21061669;28;20234;-82
2023/10/03 12:04:47;;;;;;;3.88;0.85;;;;;;;16.61;67.02;100241.50;21080544;28;20270;-81
2023/10/03 12:14:50;;;;;;;1.58;0.30;;;;;;;16.72;66.87;100270.97;21076848;28;20223;-80
2023/10/03 12:24:52;;;;;;;2.63;0.38;;;;;;;16.14;67.60;100275.66;21066167;28;20401;-81
2023/10/03 12:34:55;;;;;;;3.17;0.50;;;;;;;16.32;68.95;100318.69;21076969;28;20202;-84
2023/10/03 12:44:57;;;;;;;1.63;0.45;;;;;;;16.31;68.02;100363.31;21071627;28;20498;-81
2023/10/03 12:55:00;;;;;;;0.85;0.20;;;;;;;15.77;66.74;100380.94;21053654;28;20222;-80
2023/10/03 13:05:06;;;;;;;0.30;0.20;;;;;;;15.93;64.33;100382.97;21047326;28;20611;-82
2023/10/03 13:15:14;;;;;;;1.48;0.20;;;;;;;16.61;64.34;100385.59;21042022;28;20194;-84
2023/10/03 13:25:19;;;;;;;5.20;0.95;;;;;;;15.86;71.17;100431.00;21043794;28;20966;-78
2023/10/03 13:35:25;;;;;;;0.57;0.20;;;;;;;15.57;73.53;100452.88;21046926;28;20231;-79
2023/10/03 13:45:30;;;;;;;2.38;0.20;;;;;;;15.86;73.32;100470.75;21066304;28;20307;-79
2023/10/03 13:55:34;;;;;;;0.80;0.20;;;;;;;15.70;72.96;100491.38;21057984;28;20296;-79
2023/10/03 14:05:38;;;;;;;1.45;0.30;;;;;;;15.42;72.23;100533.03;21060513;28;20310;-80
2023/10/03 14:15:44;;;;;;;0.75;0.30;;;;;;;14.94;72.56;100557.34;21064842;28;20210;-78
2023/10/03 14:25:48;;;;;;;0.30;0.28;;;;;;;14.67;72.99;100572.22;21064942;28;20639;-78
2023/10/03 14:35:54;;;;;;;1.30;0.20;;;;;;;14.68;72.28;100602.19;21050067;28;20618;-80
2023/10/03 14:45:55;;;;;;;0.32;0.20;;;;;;;13.87;76.78;100656.50;21062858;28;20219;-79
2023/10/03 14:55:58;;;;;;;0.68;0.20;;;;;;;13.23;76.65;100705.56;21056861;28;20307;-79
2023/10/03 15:06:02;;;;;;;1.52;0.40;;;;;;;13.16;73.38;100715.69;21059085;28;20223;-80
2023/10/03 15:16:05;;;;;;;1.43;0.50;;;;;;;12.67;72.80;100745.38;21064050;28;20557;-79
2023/10/03 15:26:07;;;;;;;1.77;0.50;;;;;;;13.89;68.03;100768.16;21052303;28;20222;-79
2023/10/03 15:36:11;;;;;;;3.47;0.55;;;;;;;13.77;69.59;100804.00;21065481;28;20195;-83
2023/10/03 15:46:13;;;;;;;3.63;0.95;;;;;;;13.55;69.72;100837.00;21064903;28;20271;-78
2023/10/03 15:56:17;;;;;;;6.65;0.90;;;;;;;13.68;71.79;100841.63;21072073;28;20326;-78
2023/10/03 16:06:19;;;;;;;2.33;1.08;;;;;;;13.96;69.15;100855.34;21071429;28;20221;-79
2023/10/03 16:16:23;;;;;;;5.30;1.35;;;;;;;14.10;70.99;100869.25;21067621;28;20317;-86
2023/10/03 16:26:24;;;;;;;7.03;1.92;;;;;;;14.44;69.94;100871.09;21085277;28;20252;-85
2023/10/03 16:36:27;;;;;;;5.07;1.30;;;;;;;13.72;70.27;100908.84;21076299;28;20301;-83
2023/10/03 16:46:29;;;;;;;4.20;1.90;;;;;;;14.12;70.18;100924.34;21077215;28;20222;-84
2023/10/03 16:56:33;;;;;;;3.40;1.08;;;;;;;14.13;69.08;100959.16;21088260;28;20226;-86
2023/10/03 17:06:35;;;;;;;2.47;1.02;;;;;;;13.53;71.05;100980.72;21074421;28;20281;-85
2023/10/03 17:16:38;;;;;;;3.93;1.17;;;;;;;13.75;68.45;101005.16;21074296;28;20199;-87
2023/10/03 17:26:40;;;;;;;3.03;1.13;;;;;;;13.53;69.04;101030.78;21058719;28;20218;-80
2023/10/03 17:36:48;;;;;;;4.00;1.23;;;;;;;12.95;68.55;101048.94;21052898;28;20191;-86
2023/10/03 17:46:56;;;;;;;4.90;1.77;;;;;;;13.61;68.69;101078.03;21070378;28;20665;-80
2023/10/03 17:56:59;;;;;;;4.73;2.00;;;;;;;13.13;69.81;101106.31;21048831;28;20253;-86
2023/10/03 18:07:00;;;;;;;4.18;1.90;;;;;;;12.91;70.88;101124.19;21060921;28;20268;-85
2023/10/03 18:17:08;;;;;;;2.25;1.15;;;;;;;12.80;71.79;101129.31;21074372;28;20199;-86
2023/10/03 18:27:10;;;;;;;5.23;1.50;;;;;;;13.10;69.71;101130.44;21086724;28;20224;-85
2023/10/03 18:37:14;;;;;;;6.93;1.97;;;;;;;12.89;69.54;101147.13;21064189;28;20244;-85
2023/10/03 18:47:15;;;;;;;4.10;1.60;;;;;;;12.98;69.53;101167.78;21083749;28;20672;-86
2023/10/03 18:57:19;;;;;;;3.83;1.65;;;;;;;12.82;68.86;101177.84;21069407;28;20524;-83
2023/10/03 19:07:20;;;;;;;3.75;1.60;;;;;;;12.79;68.36;101192.59;21083194;28;20642;-86
2023/10/03 19:17:25;;;;;;;3.70;1.48;;;;;;;12.80;67.64;101205.56;21056618;28;20211;-84
2023/10/03 19:27:26;;;;;;;5.03;1.63;;;;;;;12.95;67.21;101219.28;21033367;28;20232;-85
2023/10/03 19:37:29;;;;;;;6.28;1.73;;;;;;;12.72;68.38;101226.13;21043747;28;21908;-85
2023/10/03 19:47:31;;;;;;;4.50;1.77;;;;;;;12.75;66.33;101242.41;21044486;28;20219;-87
2023/10/03 19:57:37;;;;;;;3.08;1.27;;;;;;;12.68;67.60;101256.16;21058220;28;20242;-85
2023/10/03 20:07:40;;;;;;;3.22;1.50;;;;;;;12.60;66.05;101268.22;21046152;28;20220;-82
2023/10/03 20:17:43;;;;;;;2.77;1.30;;;;;;;13.03;64.30;101273.34;21044312;28;20555;-81
2023/10/03 20:27:44;;;;;;;5.38;1.88;;;;;;;12.76;64.94;101277.97;21085625;28;20289;-80
2023/10/03 20:37:48;;;;;;;3.15;1.27;;;;;;;12.84;63.14;101282.88;21073621;28;20294;-83
2023/10/03 20:47:49;;;;;;;6.13;1.47;;;;;;;13.24;62.29;101288.59;21028559;28;20202;-81
2023/10/03 20:57:54;;;;;;;4.75;1.67;;;;;;;12.91;61.55;101308.66;21048209;28;20230;-85
2023/10/03 21:07:57;;;;;;;2.67;1.45;;;;;;;12.69;60.91;101303.00;21073076;28;20488;-81
2023/10/03 21:18:00;;;;;;;3.78;1.15;;;;;;;12.86;61.83;101339.84;21053945;28;20694;-80
2023/10/03 21:28:03;;;;;;;4.03;1.60;;;;;;;12.98;65.86;101334.50;21079524;28;20198;-81
2023/10/03 21:38:06;;;;;;;3.23;1.83;;;;;;;13.34;64.10;101333.56;21060920;28;20208;-80
2023/10/03 21:48:11;;;;;;;5.23;1.30;;;;;;;12.80;66.37;101332.69;21054252;28;20615;-80
2023/10/03 21:58:14;;;;;;;3.90;1.50;;;;;;;12.69;64.71;101334.09;21073692;28;20230;-80
2023/10/03 22:08:15;;;;;;;6.37;1.60;;;;;;;12.35;65.23;101345.00;21061043;28;20620;-79
2023/10/03 22:18:19;;;;;;;7.63;1.38;;;;;;;13.05;63.26;101344.50;21060204;28;20525;-81
2023/10/03 22:28:21;;;;;;;3.53;1.45;;;;;;;13.43;62.21;101342.13;21069183;28;20482;-81
2023/10/03 22:38:24;;;;;;;3.37;1.80;;;;;;;12.57;63.64;101339.47;21065094;28;20318;-81
2023/10/03 22:48:26;;;;;;;3.13;1.53;;;;;;;12.85;62.57;101346.69;21060298;28;20311;-80
2023/10/03 22:58:29;;;;;;;2.47;1.30;;;;;;;13.15;61.67;101347.88;21065776;28;20245;-81
2023/10/03 23:08:31;;;;;;;3.25;1.58;;;;;;;12.45;62.77;101339.13;21076002;28;20209;-79
2023/10/03 23:18:34;;;;;;;3.93;1.50;;;;;;;11.97;64.19;101347.22;21071412;28;20222;-85
2023/10/03 23:28:36;;;;;;;3.03;1.33;;;;;;;12.25;64.28;101352.53;21085194;28;20193;-86
2023/10/03 23:38:39;;;;;;;4.10;1.40;;;;;;;12.39;63.90;101357.34;21086338;28;20214;-85
2023/10/03 23:48:41;;;;;;;6.73;1.43;;;;;;;12.43;63.86;101370.50;21065513;28;20252;-87
2023/10/03 23:58:47;;;;;;;2.67;1.20;;;;;;;11.99;65.40;101376.81;21101905;28;20232;-80
